Time;durP1;ratioP1;P1;durP2;ratioP2;P2;SDS_P1;SDS_P2;PMS_P1;PMS_P2;Temp;Humidity;BMP_temperature;BMP_pressure;BME280_temperature;BME280_humidity;BME280_pressure;Samples;Min_cycle;Max_cycle;Signal;HPM_P1;HPM_P2
2021/12/19 00:09:14;;;;;;;5.97;1.42;;;;;;;4.99;100.00;101323.31;4903264;28;20536;-82
2021/12/19 00:11:49;;;;;;;7.30;2.05;;;;;;;4.98;100.00;101322.44;5000298;28;20040;-83
2021/12/19 00:14:18;;;;;;;14.38;1.90;;;;;;;4.96;100.00;101320.75;4988191;28;20048;-84
2021/12/19 00:16:54;;;;;;;9.15;1.83;;;;;;;4.94;100.00;101312.94;5003952;28;20035;-82
2021/12/19 00:19:22;;;;;;;9.88;2.00;;;6.60;99.90;;;4.94;100.00;101287.69;4979773;28;20037;-83
2021/12/19 00:21:58;;;;;;;6.50;1.83;;;;;;;4.98;100.00;101298.97;5010241;28;20079;-82
2021/12/19 00:24:24;;;;;;;5.72;1.33;;;;;;;4.96;100.00;101305.94;5040883;28;20039;-83
2021/12/19 00:26:51;;;;;;;10.55;1.90;;;;;;;4.97;100.00;101315.53;5065320;28;20033;-82
2021/12/19 00:29:25;;;;;;;10.68;2.00;;;6.60;99.90;;;4.94;100.00;101307.72;4969189;28;20045;-84
2021/12/19 00:32:54;;;;;;;10.15;2.10;;;;;;;4.91;100.00;101313.00;4940188;28;20034;-84
2021/12/19 00:35:19;;;;;;;9.32;1.98;;;;;;;4.84;100.00;101325.25;4947098;28;20040;-84
2021/12/19 00:38:00;;;;;;;10.90;1.70;;;;;;;4.90;100.00;101311.25;4915293;28;20032;-87
2021/12/19 00:40:27;;;;;;;6.35;2.15;;;;;;;4.89;100.00;101339.09;4954230;28;20041;-85
2021/12/19 00:43:04;;;;;;;7.68;1.70;;;;;;;4.92;100.00;101336.47;4996415;28;20476;-86
2021/12/19 00:45:33;;;;;;;6.97;1.88;;;;;;;4.86;100.00;101344.38;5002429;28;20627;-85
2021/12/19 00:48:26;;;;;;;16.15;1.70;;;;;;;4.88;100.00;101344.31;4970953;28;20120;-87
2021/12/19 00:51:03;;;;;;;18.35;2.13;;;;;;;4.86;100.00;101356.53;4966563;28;24312;-85
2021/12/19 00:53:29;;;;;;;16.92;2.00;;;6.40;99.90;;;4.88;100.00;101344.31;4986708;28;20404;-83
2021/12/19 00:56:05;;;;;;;8.35;1.13;;;;;;;4.86;100.00;101352.19;4974961;28;20463;-84
2021/12/19 00:58:31;;;;;;;16.35;2.35;;;6.60;99.90;;;4.87;100.00;101360.88;4943614;28;20052;-84
2021/12/19 01:00:58;;;;;;;2.13;1.15;;;;;;;4.89;100.00;101343.47;4967271;28;20683;-84
2021/12/19 01:03:35;;;;;;;10.57;1.52;;;;;;;4.95;100.00;101346.00;4911885;28;21458;-84
2021/12/19 01:06:02;;;;;;;12.35;2.22;;;6.60;99.90;;;4.94;100.00;101331.19;4985391;28;20245;-84
2021/12/19 01:08:37;;;;;;;2.88;1.65;;;;;;;4.96;100.00;101352.94;4970446;28;20845;-85
2021/12/19 01:11:03;;;;;;;14.00;1.35;;;;;;;4.92;100.00;101352.13;4968782;28;20044;-84
2021/12/19 01:13:29;;;;;;;2.65;1.13;;;6.60;99.90;;;4.93;100.00;101352.97;4966729;28;20033;-85
2021/12/19 01:16:07;;;;;;;8.93;1.92;;;;;;;4.93;100.00;101339.94;4988939;28;20028;-84
2021/12/19 01:18:33;;;;;;;2.80;0.95;;;6.60;99.90;;;4.95;100.00;101361.66;5023153;28;20037;-85
2021/12/19 01:20:59;;;;;;;12.40;1.70;;;;;;;4.94;100.00;101366.00;4959012;28;20486;-85
2021/12/19 01:23:31;;;;;;;9.15;1.35;;;;;;;4.98;100.00;101371.19;4984141;28;20063;-86
2021/12/19 01:25:57;;;;;;;7.05;1.58;;;6.60;99.90;;;4.91;100.00;101344.31;4966346;28;20088;-83
2021/12/19 01:28:23;;;;;;;11.30;1.55;;;;;;;4.91;100.00;101360.81;4973079;28;20575;-85
2021/12/19 01:30:49;;;;;;;6.15;1.60;;;6.50;99.90;;;4.93;100.00;101343.41;5014099;28;21175;-84
2021/12/19 01:33:24;;;;;;;8.25;1.50;;;;;;;4.91;100.00;101329.50;4967079;28;20045;-84
2021/12/19 01:36:05;;;;;;;4.40;1.63;;;;;;;4.93;100.00;101321.66;4959310;28;20054;-85
2021/12/19 01:38:31;;;;;;;11.90;2.03;;;;;;;4.93;100.00;101337.31;4969392;28;20039;-86
2021/12/19 01:40:58;;;;;;;2.80;1.38;;;6.60;99.90;;;4.93;100.00;101347.75;4970710;28;21070;-85
2021/12/19 01:43:33;;;;;;;4.10;1.48;;;;;;;4.91;100.00;101349.53;4958943;28;20151;-83
2021/12/19 01:45:59;;;;;;;13.63;2.73;;;6.60;99.90;;;5.00;100.00;101314.59;4985793;28;20428;-86
2021/12/19 01:48:26;;;;;;;3.63;1.50;;;;;;;4.88;100.00;101318.22;4966786;28;20028;-84
2021/12/19 01:51:20;;;;;;;9.90;2.28;;;;;;;4.89;100.00;101306.94;5008871;27;20380;-85
2021/12/19 01:53:46;;;;;;;13.23;1.92;;;;;;;4.81;100.00;101299.19;4963493;28;20048;-86
2021/12/19 01:56:21;;;;;;;11.90;2.00;;;;;;;4.78;100.00;101291.41;4968083;28;20033;-86
2021/12/19 01:58:47;;;;;;;4.60;1.50;;;6.40;99.90;;;4.77;100.00;101299.25;4979063;28;20182;-84
2021/12/19 02:01:21;;;;;;;6.32;2.05;;;;;;;4.72;100.00;101302.78;4922918;28;20038;-85
2021/12/19 02:03:50;;;;;;;5.82;2.05;;;;;;;4.72;100.00;101308.00;4929621;28;20030;-83
2021/12/19 02:06:17;;;;;;;4.25;1.70;;;6.30;99.90;;;4.65;100.00;101306.38;4935617;28;20050;-85
2021/12/19 02:08:55;;;;;;;13.80;2.20;;;;;;;4.65;100.00;101308.97;4912143;28;20042;-84
2021/12/19 02:11:21;;;;;;;7.47;1.58;;;6.30;99.90;;;4.68;100.00;101310.69;4933936;28;20034;-86
2021/12/19 02:13:47;;;;;;;5.90;2.13;;;;;;;4.64;100.00;101293.34;4944899;28;20072;-83
2021/12/19 02:16:20;;;;;;;3.70;1.70;;;;;;;4.67;100.00;101306.34;4933293;28;20030;-85
2021/12/19 02:18:47;;;;;;;13.02;1.90;;;;;;;4.68;100.00;101298.50;4926349;28;20120;-87
2021/12/19 02:21:13;;;;;;;5.05;1.40;;;;;;;4.69;100.00;101295.00;4914867;28;20069;-86
2021/12/19 02:23:50;;;;;;;4.03;1.30;;;;;;;4.69;100.00;101288.94;4909452;28;20113;-85
2021/12/19 02:26:17;;;;;;;1.40;1.00;;;6.40;99.90;;;4.70;100.00;101293.25;4940786;28;20523;-86
2021/12/19 02:28:43;;;;;;;5.45;0.98;;;;;;;4.73;100.00;101278.44;4936491;28;20081;-85
2021/12/19 02:31:20;;;;;;;10.15;1.55;;;;;;;4.73;100.00;101268.00;4937203;28;20038;-86
2021/12/19 02:34:01;;;;;;;6.97;1.50;;;;;;;4.69;100.00;101268.94;4969501;28;20036;-83
2021/12/19 02:36:47;;;;;;;6.55;1.48;;;;;;;4.70;100.00;101260.19;4942612;28;20145;-84
2021/12/19 02:50:35;;;;;;;6.20;2.22;;;6.50;99.90;;;4.86;100.00;101241.72;4931627;28;20053;-85
2021/12/19 02:53:07;;;;;;;9.52;1.27;;;;;;;4.85;100.00;101229.56;4936918;28;20117;-86
2021/12/19 02:55:33;;;;;;;14.00;1.77;;;6.50;99.90;;;4.85;100.00;101230.41;4921845;28;20410;-85
2021/12/19 02:57:59;;;;;;;10.02;2.13;;;;;;;4.86;100.00;101231.28;4904414;28;20045;-84
2021/12/19 03:00:27;;;;;;;8.52;1.70;;;6.50;99.90;;;4.86;100.00;101218.22;4904162;28;21122;-84
2021/12/19 03:03:02;;;;;;;12.32;1.98;;;;;;;4.85;100.00;101212.16;4913951;28;20061;-84
2021/12/19 03:05:31;;;;;;;7.88;1.00;;;6.50;99.90;;;4.86;100.00;101203.47;4894181;28;20031;-84
2021/12/19 03:08:03;;;;;;;7.97;1.15;;;;;;;4.91;100.00;101208.59;4988080;28;20097;-85
2021/12/19 03:18:32;;;;;;;4.43;0.95;;;;;;;4.88;100.00;101216.47;4906457;28;20206;-84
2021/12/19 03:20:59;;;;;;;7.72;1.85;;;;;;;4.89;100.00;101216.44;4910251;28;20056;-84
2021/12/19 03:23:33;;;;;;;6.95;1.63;;;;;;;4.90;100.00;101222.53;4921406;28;20070;-84
2021/12/19 03:26:01;;;;;;;2.85;1.10;;;;;;;4.89;100.00;101218.19;4923736;28;20057;-84
2021/12/19 03:28:27;;;;;;;3.50;1.63;;;;;;;4.90;100.00;101205.13;4890159;28;20047;-84
2021/12/19 03:31:04;;;;;;;13.05;1.75;;;;;;;4.88;100.00;101203.41;4933503;28;20177;-85
2021/12/19 03:33:35;;;;;;;5.28;1.70;;;6.60;99.90;;;4.89;100.00;101192.09;4930889;23;20567;-84
2021/12/19 03:36:05;;;;;;;9.77;1.55;;;;;;;4.87;100.00;101264.34;4900614;28;20549;-83
2021/12/19 03:38:38;;;;;;;4.32;1.23;;;6.50;99.90;;;4.88;100.00;101229.50;4916328;28;20042;-83
2021/12/19 03:43:48;;;;;;;10.98;1.35;;;6.60;99.90;;;4.93;100.00;101212.91;4899083;28;20114;-85
2021/12/19 03:46:16;;;;;;;2.20;0.73;;;6.60;99.90;;;4.95;100.00;101199.84;4859142;28;20043;-86
2021/12/19 03:48:42;;;;;;;10.32;1.90;;;6.60;99.90;;;4.93;100.00;101185.97;4864669;29;20039;-83
2021/12/19 03:51:18;;;;;;;4.00;1.13;;;;;;;4.91;100.00;101187.72;4869205;28;20495;-84
2021/12/19 03:53:44;;;;;;;9.73;1.58;;;;;;;4.93;100.00;101202.47;4866530;28;20034;-84
2021/12/19 03:56:10;;;;;;;4.47;1.05;;;6.60;99.90;;;4.91;100.00;101196.41;4895795;28;20448;-84
2021/12/19 03:58:43;;;;;;;2.30;1.08;;;;;;;4.95;100.00;101194.63;4896829;28;20044;-83
2021/12/19 04:01:10;;;;;;;4.95;1.33;;;6.60;99.90;;;4.96;100.00;101182.44;4902812;28;20039;-83
2021/12/19 04:03:37;;;;;;;13.80;1.30;;;6.60;99.90;;;4.92;100.00;101172.06;4858338;28;20032;-85
2021/12/19 04:06:12;;;;;;;6.38;1.17;;;6.60;99.90;;;4.94;100.00;101164.19;4895738;28;20050;-84
2021/12/19 04:08:38;;;;;;;2.88;0.68;;;;;;;4.99;100.00;101185.88;4891560;28;20445;-85
2021/12/19 04:11:05;;;;;;;4.25;0.93;;;;;;;4.99;100.00;101165.00;4871777;28;20042;-84
2021/12/19 04:13:31;;;;;;;3.50;0.98;;;6.60;99.90;;;4.98;100.00;101159.78;4904051;23;20847;-84
2021/12/19 04:16:06;;;;;;;10.93;1.02;;;;;;;4.99;100.00;101164.09;4890384;28;20034;-84
2021/12/19 04:18:32;;;;;;;7.55;1.27;;;6.60;99.90;;;4.97;100.00;101161.53;4916358;28;20089;-84
2021/12/19 04:20:57;;;;;;;7.03;1.30;;;6.60;99.90;;;5.04;100.00;101157.94;4910560;28;20031;-83
2021/12/19 04:23:33;;;;;;;4.60;0.88;;;;;;;5.04;100.00;101151.84;4899030;28;20514;-83
2021/12/19 04:25:59;;;;;;;5.45;1.17;;;;;;;5.02;100.00;101149.25;4958407;28;20050;-85
2021/12/19 04:28:25;;;;;;;8.85;1.10;;;6.70;99.90;;;5.04;100.00;101146.63;4931158;28;20042;-83
2021/12/19 04:31:00;;;;;;;2.80;0.85;;;;;;;5.03;100.00;101153.63;4934492;28;20569;-86
2021/12/19 04:33:28;;;;;;;9.70;1.70;;;6.70;99.90;;;5.02;100.00;101145.78;4936592;28;20049;-84
2021/12/19 04:36:01;;;;;;;12.55;0.95;;;6.60;99.90;;;5.04;100.00;101149.25;4951200;28;21362;-84
2021/12/19 04:57:50;;;;;;;3.53;0.77;;;;;;;4.99;100.00;101120.63;4910658;28;20054;-85
2021/12/19 05:00:31;;;;;;;2.85;0.82;;;;;;;4.96;100.00;101115.44;4891120;28;20057;-85
2021/12/19 05:03:14;;;;;;;7.47;0.93;;;6.60;99.90;;;4.94;100.00;101106.78;4897207;28;20031;-85
2021/12/19 05:14:14;;;;;;;13.27;1.85;;;6.60;99.90;;;4.95;100.00;101085.03;4877339;23;20088;-85
2021/12/19 05:16:44;;;;;;;1.23;0.40;;;;;;;4.87;100.00;101089.50;4903481;28;20034;-84
2021/12/19 05:19:42;;;;;;;10.75;1.20;;;;;;;4.94;100.00;101096.34;4877696;28;20035;-86
2021/12/19 05:22:18;;;;;;;6.88;0.98;;;;;;;5.04;100.00;101091.81;4871252;28;20042;-86
2021/12/19 05:25:07;;;;;;;8.23;1.02;;;;;;;4.97;100.00;101066.69;4887903;28;20043;-84
2021/12/19 05:27:33;;;;;;;7.80;1.10;;;;;;;4.88;100.00;101075.56;4884994;28;20042;-84
2021/12/19 05:29:59;;;;;;;10.10;0.85;;;;;;;4.92;100.00;101067.69;4893854;28;20047;-86
2021/12/19 05:32:25;;;;;;;4.10;1.15;;;6.60;99.90;;;4.92;100.00;101064.19;4884721;28;20100;-84
2021/12/19 05:34:51;;;;;;;5.18;0.88;;;6.50;99.90;;;4.87;100.00;101071.25;4877812;23;20533;-85
2021/12/19 05:45:46;;;;;;;2.72;0.95;;;6.50;99.90;;;4.84;100.00;101053.91;4900699;29;20113;-84
2021/12/19 05:48:20;;;;;;;1.67;0.57;;;;;;;4.89;100.00;101065.09;4885711;28;20087;-87
2021/12/19 05:51:14;;;;;;;4.97;0.90;;;;;;;4.97;100.00;101058.88;4861048;28;20055;-84
2021/12/19 05:53:40;;;;;;;1.95;0.70;;;;;;;5.00;100.00;101064.91;4862796;28;20116;-84
2021/12/19 05:56:06;;;;;;;6.35;0.85;;;6.70;99.90;;;5.01;100.00;101074.47;4825991;29;20412;-85
2021/12/19 05:58:32;;;;;;;3.92;0.68;;;;;;;4.98;100.00;101058.84;4874139;29;20035;-86
2021/12/19 06:00:58;;;;;;;14.50;1.27;;;;;;;4.97;100.00;101066.69;4860323;28;20400;-85
2021/12/19 06:03:30;;;;;;;6.60;2.13;;;;;;;5.02;100.00;101064.88;4870605;29;20028;-85
2021/12/19 06:05:57;;;;;;;6.78;1.13;;;;;;;4.96;100.00;101059.78;4841832;29;20039;-84
2021/12/19 06:08:23;;;;;;;10.15;0.82;;;;;;;5.01;100.00;101052.72;4861398;29;20065;-83
2021/12/19 06:10:49;;;;;;;4.97;0.85;;;;;;;4.97;100.00;101046.72;4847799;28;20141;-84
2021/12/19 06:13:21;;;;;;;4.65;0.82;;;;;;;5.00;100.00;101049.25;4824589;29;20545;-86
2021/12/19 06:15:50;;;;;;;8.02;1.30;;;;;;;5.01;100.00;101052.72;4808806;29;20396;-85
2021/12/19 06:18:16;;;;;;;11.95;1.10;;;6.70;99.90;;;5.04;100.00;101053.53;4854372;28;20063;-84
2021/12/19 06:20:42;;;;;;;8.35;1.30;;;6.70;99.90;;;5.00;100.00;101045.78;4878327;28;20036;-83
2021/12/19 06:23:16;;;;;;;10.15;1.45;;;;;;;5.03;100.00;101050.94;4875796;28;20535;-85
2021/12/19 06:25:45;;;;;;;10.68;1.92;;;6.70;99.90;;;5.05;100.00;101042.19;4874861;28;20118;-84
2021/12/19 06:28:22;;;;;;;12.32;1.17;;;6.70;99.90;;;5.00;100.00;101033.59;4864676;28;20530;-84
2021/12/19 06:30:48;;;;;;;;;;;6.70;99.90;;;5.00;100.00;101023.16;4884381;28;20054;-84
2021/12/19 06:33:15;;;;;;;8.10;1.42;;;;;;;4.97;100.00;101025.84;4842708;29;20017;-84
2021/12/19 06:35:50;;;;;;;7.80;1.10;;;;;;;5.02;100.00;101038.78;4862828;28;20040;-84
2021/12/19 06:38:16;;;;;;;10.07;1.20;;;6.70;99.90;;;5.05;100.00;101038.72;4872227;29;20041;-85
2021/12/19 06:40:42;;;;;;;1.75;0.47;;;6.60;99.90;;;5.08;100.00;101029.09;4850672;29;20489;-85
2021/12/19 06:43:45;;;;;;;4.97;0.50;;;6.70;99.90;;;5.04;100.00;101014.38;4869875;29;20076;-84
2021/12/19 06:46:11;;;;;;;6.72;1.02;;;;;;;5.03;100.00;101009.19;4860970;29;20115;-84
2021/12/19 06:48:38;;;;;;;6.57;1.20;;;;;;;5.01;100.00;101001.41;4870919;28;20613;-84
2021/12/19 06:51:04;;;;;;;10.43;1.17;;;6.70;99.90;;;5.01;100.00;101000.50;4844093;29;20055;-84
2021/12/19 06:53:56;;;;;;;3.60;0.90;;;;;;;5.02;100.00;100995.28;4863440;28;20043;-84
2021/12/19 06:56:23;;;;;;;6.03;0.85;;;;;;;5.08;100.00;101013.44;4888020;28;20035;-83
2021/12/19 06:58:59;;;;;;;10.50;1.20;;;;;;;5.09;100.00;100999.47;4839377;29;20052;-84
2021/12/19 07:01:25;;;;;;;;;;;6.70;99.90;;;5.10;100.00;100997.75;4844153;28;20151;-84
2021/12/19 07:03:51;;;;;;;15.93;1.07;;;6.70;99.90;;;5.05;100.00;100968.25;4851659;28;20992;-83
2021/12/19 07:06:17;;;;;;;8.38;1.20;;;;;;;5.11;100.00;100989.88;4838953;29;20021;-84
2021/12/19 07:08:52;;;;;;;10.00;1.38;;;6.70;99.90;;;5.06;100.00;100970.84;4848834;28;20122;-84
2021/12/19 07:11:20;;;;;;;9.32;1.30;;;;;;;5.06;100.00;100962.16;4882240;29;20048;-84
2021/12/19 07:13:47;;;;;;;4.15;0.50;;;;;;;5.06;100.00;100978.66;4871789;28;20463;-85
2021/12/19 07:16:22;;;;;;;17.88;1.20;;;;;;;5.06;100.00;100977.81;4855325;29;20031;-85
2021/12/19 07:18:48;;;;;;;4.65;0.70;;;;;;;5.07;100.00;100969.09;4872852;29;20567;-84
2021/12/19 07:21:15;;;;;;;3.03;0.68;;;;;;;5.05;100.00;100963.03;4867031;28;20040;-84
2021/12/19 07:23:50;;;;;;;14.43;1.00;;;;;;;5.05;100.00;100966.50;4854044;28;20731;-85
2021/12/19 07:26:16;;;;;;;5.65;1.10;;;;;;;5.08;100.00;100958.63;4870671;29;20119;-83
2021/12/19 07:29:45;;;;;;;7.22;1.00;;;;;;;5.05;100.00;100961.28;5079056;27;20397;-82
2021/12/19 07:32:11;;;;;;;5.25;1.00;;;6.70;99.90;;;5.00;100.00;100963.13;5038197;27;20047;-82
2021/12/19 07:34:48;;;;;;;5.20;1.48;;;;;;;5.08;100.00;100950.78;4984007;28;20024;-82
2021/12/19 07:37:14;;;;;;;9.43;0.82;;;;;;;5.12;100.00;100960.28;4994288;28;20021;-83
2021/12/19 07:40:24;;;;;;;5.53;0.93;;;;;;;5.11;100.00;100955.94;5016368;28;20049;-82
2021/12/19 07:42:43;;;;;;;10.88;0.90;;;;;;;5.16;100.00;100966.28;5006990;28;20077;-83
2021/12/19 07:45:13;;;;;;;4.53;1.20;;;;;;;5.19;100.00;100954.94;5000671;28;20045;-81
2021/12/19 07:47:48;;;;;;;4.15;0.70;;;6.80;99.90;;;5.17;100.00;100962.78;5001179;28;20032;-82
2021/12/19 07:50:15;;;;;;;11.02;1.25;;;6.80;99.90;;;5.23;100.00;100956.59;4945401;28;20114;-81
2021/12/19 07:52:41;;;;;;;5.45;1.08;;;6.80;99.90;;;5.22;100.00;100954.84;4968417;28;20029;-82
2021/12/19 07:55:17;;;;;;;8.82;1.20;;;;;;;5.19;100.00;100936.66;4996359;28;20044;-81
2021/12/19 07:57:43;;;;;;;5.18;1.05;;;6.80;99.90;;;5.19;100.00;100926.22;4996920;28;20035;-84
2021/12/19 08:00:21;;;;;;;5.50;1.42;;;;;;;5.21;100.00;100934.88;4967437;28;20033;-83
2021/12/19 08:02:49;;;;;;;11.15;0.90;;;6.80;99.90;;;5.24;100.00;100934.81;5009834;28;20687;-81
2021/12/19 08:05:24;;;;;;;2.97;0.73;;;;;;;5.25;100.00;100932.16;4979719;28;20029;-82
2021/12/19 08:07:56;;;;;;;18.92;1.17;;;6.90;99.90;;;5.19;100.00;100936.66;4991768;28;20036;-84
2021/12/19 08:13:28;;;;;;;12.57;0.88;;;6.80;99.90;;;5.21;100.00;100937.50;4990699;28;20041;-81
2021/12/19 08:16:10;;;;;;;4.70;0.80;;;;;;;5.23;100.00;100927.88;5004849;28;20036;-82
2021/12/19 08:18:45;;;;;;;5.13;0.98;;;;;;;5.24;100.00;100946.09;4981834;28;21540;-83
2021/12/19 08:21:12;;;;;;;5.37;1.03;;;6.90;99.90;;;5.26;100.00;100930.41;5005234;28;20045;-81
2021/12/19 08:23:38;;;;;;;5.40;1.30;;;6.90;99.90;;;5.26;100.00;100920.81;4985895;28;20070;-81
2021/12/19 08:26:14;;;;;;;8.77;1.63;;;;;;;5.26;100.00;100922.56;4970176;28;20039;-81
2021/12/19 08:31:36;;;;;;;8.93;1.13;;;;;;;5.28;100.00;100916.44;4979817;28;20049;-85
2021/12/19 08:34:45;;;;;;;11.65;1.58;;;6.90;99.90;;;5.28;100.00;100915.56;5005763;28;20123;-81
2021/12/19 08:36:52;;;;;;;4.30;0.85;;;;;;;5.31;100.00;100907.66;5051338;28;20042;-83
2021/12/19 08:39:35;;;;;;;14.50;1.52;;;;;;;5.34;100.00;100900.63;5003126;28;20110;-84
2021/12/19 08:42:02;;;;;;;3.30;1.00;;;7.00;99.90;;;5.33;100.00;100914.59;4976944;28;20036;-82
2021/12/19 08:44:40;;;;;;;7.53;1.55;;;;;;;5.31;100.00;100902.44;4987233;28;20056;-83
2021/12/19 08:47:32;;;;;;;10.18;1.15;;;;;;;5.32;100.00;100904.16;4969874;28;20047;-83
2021/12/19 08:50:09;;;;;;;9.27;1.38;;;;;;;5.35;100.00;100886.66;4997495;28;20111;-83
2021/12/19 08:52:37;;;;;;;3.13;0.57;;;;;;;5.34;100.00;100884.97;4986128;28;20037;-84
2021/12/19 08:55:16;;;;;;;9.20;0.93;;;7.00;99.90;;;5.35;100.00;100902.34;4979229;28;20040;-83
2021/12/19 08:57:45;;;;;;;11.15;1.67;;;7.00;99.90;;;5.37;100.00;101320.13;4963991;28;20030;-83
2021/12/19 09:00:24;;;;;;;8.20;0.70;;;;;;;5.41;100.00;101344.47;4961897;28;20017;-82
2021/12/19 09:02:53;;;;;;;6.78;1.17;;;;;;;5.39;100.00;101348.84;5013093;28;20063;-83
2021/12/19 09:05:30;;;;;;;9.55;1.23;;;7.00;99.90;;;5.38;100.00;101361.06;5014739;28;20037;-84
2021/12/19 09:08:11;;;;;;;6.28;0.90;;;;;;;5.42;100.00;101322.66;4963977;28;20102;-83
2021/12/19 09:10:46;;;;;;;12.60;1.58;;;;;;;5.42;100.00;101357.50;4984512;28;20037;-82
2021/12/19 09:13:12;;;;;;;4.90;0.90;;;7.10;99.90;;;5.43;100.00;101343.56;4987967;28;20112;-83
2021/12/19 09:15:38;;;;;;;3.70;0.82;;;;;;;5.44;100.00;101332.22;4968450;28;20403;-83
2021/12/19 09:18:10;;;;;;;8.82;1.15;;;7.20;99.90;;;5.48;100.00;101315.59;4985721;28;20037;-83
2021/12/19 09:20:36;;;;;;;4.43;0.70;;;;;;;5.48;100.00;101320.81;4963387;28;20025;-84
2021/12/19 09:23:06;;;;;;;4.15;1.23;;;;;;;5.51;100.00;101315.56;4980385;28;20040;-84
2021/12/19 09:25:46;;;;;;;5.53;1.27;;;7.10;99.90;;;5.49;100.00;101306.91;4989523;28;20537;-85
2021/12/19 09:28:18;;;;;;;10.25;1.45;;;;;;;5.54;100.00;101310.28;4974119;28;20089;-83
2021/12/19 09:30:45;;;;;;;7.32;0.88;;;;;;;5.57;100.00;101308.50;5002384;28;20120;-83
2021/12/19 09:33:24;;;;;;;9.27;1.50;;;7.20;99.90;;;5.60;100.00;101308.47;4974805;28;20117;-83
2021/12/19 09:35:51;;;;;;;12.45;1.50;;;;;;;5.57;100.00;101298.06;4928174;28;20154;-83
2021/12/19 09:38:36;;;;;;;10.23;1.65;;;7.20;99.90;;;5.57;100.00;101419.09;4940918;28;20122;-84
2021/12/19 09:41:14;;;;;;;8.55;0.95;;;;;;;5.59;100.00;101438.22;4968318;28;20025;-84
2021/12/19 09:43:49;;;;;;;9.80;1.83;;;;;;;5.60;100.00;101420.81;4968619;28;20055;-83
2021/12/19 09:46:19;;;;;;;11.73;1.50;;;7.20;99.90;;;5.61;100.00;101470.41;4982997;28;21305;-84
2021/12/19 09:48:55;;;;;;;6.15;1.00;;;7.20;99.90;;;5.65;100.00;101489.53;5009421;28;20123;-83
2021/12/19 09:51:21;;;;;;;9.33;1.60;;;;;;;5.66;100.00;101426.81;4981581;28;20036;-82
2021/12/19 09:53:56;;;;;;;8.63;1.58;;;;;;;5.66;100.00;101365.81;4971798;28;20267;-84
2021/12/19 09:56:26;;;;;;;9.00;1.60;;;7.30;99.90;;;5.70;100.00;101372.72;5001078;28;20033;-83
2021/12/19 10:02:00;;;;;;;4.63;0.90;;;7.40;99.90;;;5.80;100.00;101340.34;4963299;28;20033;-82
2021/12/19 10:04:49;;;;;;;17.90;1.83;;;7.40;99.90;;;5.79;100.00;101319.44;4990234;28;20036;-85
2021/12/19 10:07:32;;;;;;;12.55;1.15;;;7.40;99.90;;;5.80;100.00;101313.34;4992002;28;20024;-83
2021/12/19 10:10:24;;;;;;;16.02;1.30;;;;;;;5.80;100.00;101306.38;5009354;28;20202;-84
2021/12/19 10:13:05;;;;;;;5.50;0.90;;;;;;;5.81;100.00;101297.66;4971028;28;20030;-86
2021/12/19 10:15:44;;;;;;;12.13;1.13;;;;;;;5.88;100.00;101277.50;4942592;28;20524;-84
2021/12/19 10:18:27;;;;;;;7.20;1.15;;;;;;;5.88;100.00;101280.97;4989057;28;20485;-84
2021/12/19 10:21:07;;;;;;;18.33;1.73;;;7.50;99.90;;;5.90;100.00;101278.31;4985313;28;20040;-84
2021/12/19 10:23:36;;;;;;;8.35;1.02;;;;;;;5.91;100.00;101269.59;4967265;28;20032;-85
2021/12/19 10:26:13;;;;;;;9.65;1.98;;;7.60;99.90;;;6.00;100.00;101268.59;4961346;28;20048;-84
2021/12/19 10:29:00;;;;;;;13.88;2.00;;;7.60;99.90;;;5.95;100.00;101258.22;4993784;28;20048;-85
2021/12/19 10:31:34;;;;;;;11.50;1.35;;;;;;;5.94;100.00;101262.59;4935447;28;20048;-86
2021/12/19 10:34:49;;;;;;;10.48;1.25;;;7.60;99.90;;;5.94;100.00;101236.44;4979921;28;20029;-83
2021/12/19 10:37:41;;;;;;;13.45;1.70;;;;;;;5.90;100.00;101231.28;4917144;28;20491;-85
2021/12/19 10:40:08;;;;;;;6.53;0.80;;;;;;;5.93;100.00;101226.84;4942773;28;20041;-85
2021/12/19 10:43:18;;;;;;;11.45;1.15;;;;;;;5.95;100.00;101221.63;4983442;28;20614;-84
2021/12/19 10:46:03;;;;;;;4.47;1.27;;;;;;;5.96;100.00;101223.31;5028923;28;20031;-87
2021/12/19 10:48:57;;;;;;;15.77;1.38;;;7.60;99.90;;;6.01;100.00;101220.66;4998739;28;20055;-84
2021/12/19 10:51:24;;;;;;;7.90;1.83;;;;;;;6.02;100.00;101217.97;4977001;28;20028;-85
2021/12/19 10:54:02;;;;;;;6.65;1.83;;;7.60;99.90;;;6.03;100.00;101221.47;5009965;28;20133;-84
2021/12/19 10:56:40;;;;;;;12.15;1.52;;;;;;;6.06;100.00;101216.19;4937072;28;20032;-85
2021/12/19 10:59:09;;;;;;;15.13;1.30;;;;;;;6.02;100.00;101214.53;5001566;28;20514;-86
2021/12/19 11:01:47;;;;;;;9.00;1.10;;;;;;;5.99;100.00;101204.13;4969794;28;20024;-85
2021/12/19 11:04:23;;;;;;;19.67;1.20;;;7.60;99.90;;;5.92;100.00;101190.28;4974538;28;20155;-85
2021/12/19 11:06:53;;;;;;;11.88;1.55;;;7.60;99.90;;;5.92;100.00;101187.69;4976447;28;20037;-85
2021/12/19 11:09:30;;;;;;;12.02;1.33;;;;;;;5.87;100.00;101192.97;4991081;28;20090;-83
2021/12/19 11:12:15;;;;;;;18.55;1.73;;;7.50;99.90;;;5.84;100.00;101174.75;4978674;28;20058;-83
2021/12/19 11:16:28;;;;;;;8.65;1.83;;;7.50;99.90;;;5.90;100.00;101165.94;5029869;27;20939;-87
2021/12/19 11:18:54;;;;;;;9.90;1.15;;;;;;;5.92;100.00;101169.38;5002284;28;20041;-85
2021/12/19 11:21:32;;;;;;;19.33;2.63;;;7.50;99.90;;;5.86;100.00;101156.44;4997611;28;20039;-84
2021/12/19 11:24:00;;;;;;;6.93;1.13;;;;;;;5.88;100.00;101158.13;4992498;28;20041;-87
2021/12/19 11:26:37;;;;;;;10.18;1.40;;;7.50;99.90;;;5.90;100.00;101127.59;4984050;28;20454;-86
2021/12/19 11:29:14;;;;;;;11.07;1.08;;;;;;;5.90;100.00;101138.03;4921117;28;20033;-84
2021/12/19 11:31:42;;;;;;;;;;;7.50;99.90;;;5.90;100.00;101121.50;4936939;28;20072;-86
2021/12/19 11:34:48;;;;;;;5.18;1.55;;;;;;;5.86;100.00;101141.59;4983076;23;19930;-85
2021/12/19 11:39:40;;;;;;;7.10;0.85;;;;;;;5.86;100.00;101139.00;5045501;27;21543;-84
2021/12/19 11:42:21;;;;;;;12.85;1.33;;;7.50;99.90;;;5.84;100.00;101140.78;5063871;27;20080;-84
2021/12/19 11:47:59;;;;;;;8.77;1.00;;;7.50;99.90;;;5.84;100.00;101108.56;4996846;28;20155;-84
2021/12/19 11:50:52;;;;;;;14.45;1.27;;;;;;;5.87;100.00;101114.56;5023335;27;20043;-84
2021/12/19 11:56:16;;;;;;;6.63;1.02;;;7.50;99.90;;;5.90;100.00;101092.75;5029593;22;20038;-84
2021/12/19 12:01:35;;;;;;;8.18;0.60;;;;;;;5.91;100.00;101105.78;4991708;27;1490173;-84
2021/12/19 12:04:14;;;;;;;5.35;1.20;;;7.60;99.90;;;5.92;100.00;101101.44;5017452;28;20028;-84
2021/12/19 12:07:03;;;;;;;3.30;0.80;;;;;;;5.89;100.00;101086.66;5033649;28;20043;-86
2021/12/19 12:09:38;;;;;;;7.63;1.00;;;;;;;5.83;100.00;101085.91;5025568;27;20038;-84
2021/12/19 12:12:12;;;;;;;11.03;1.73;;;;;;;5.87;100.00;101101.50;5040183;27;20967;-86
2021/12/19 12:14:42;;;;;;;0.82;0.38;;;7.50;99.90;;;5.86;100.00;101105.03;4998410;23;20729;-85
2021/12/19 12:17:22;;;;;;;12.95;2.63;;;;;;;5.85;100.00;101100.69;4961262;28;20482;-88
2021/12/19 12:19:58;;;;;;;10.80;1.27;;;;;;;5.82;100.00;101082.44;4960046;28;20041;-85
2021/12/19 12:22:51;;;;;;;12.15;0.90;;;;;;;5.82;100.00;101079.00;4978605;28;20427;-88
2021/12/19 12:25:32;;;;;;;9.75;1.40;;;;;;;5.79;100.00;101084.25;5019511;28;20067;-88
2021/12/19 12:28:27;;;;;;;5.88;1.30;;;;;;;5.79;100.00;101077.31;4943166;28;20053;-85
2021/12/19 12:30:56;;;;;;;5.93;0.80;;;;;;;5.76;100.00;101072.13;4934726;28;20033;-85
2021/12/19 12:35:55;;;;;;;9.05;1.58;;;;;;;5.80;100.00;101062.47;4994610;23;20041;-85
2021/12/19 12:38:22;;;;;;;7.80;1.67;;;;;;;5.75;100.00;101093.94;4988544;28;20051;-86
2021/12/19 12:41:06;;;;;;;7.60;0.75;;;;;;;5.74;100.00;101076.53;5004990;28;20037;-85
2021/12/19 12:43:43;;;;;;;9.98;1.25;;;7.40;99.90;;;5.70;100.00;101064.41;4972923;28;20056;-86
2021/12/19 12:46:18;;;;;;;17.70;2.03;;;7.30;99.90;;;5.71;100.00;101076.59;4946461;28;20026;-84
2021/12/19 12:49:00;;;;;;;11.52;1.73;;;7.30;99.90;;;5.67;100.00;101074.94;4975987;28;20200;-84
2021/12/19 12:51:39;;;;;;;5.93;0.90;;;;;;;5.66;100.00;101063.63;4926954;28;20060;-84
2021/12/19 12:54:21;;;;;;;5.72;0.82;;;;;;;5.67;100.00;101067.09;4929578;28;20037;-83
2021/12/19 12:57:00;;;;;;;7.72;1.33;;;;;;;5.66;100.00;101045.34;4965896;28;20060;-83